sensor_id;sensor_type;location;lat;lon;timestamp;P1;durP1;ratioP1;P2;durP2;ratioP2
61704;SDS011;47627;48.078;11.522;2023-06-22T06:54:05;13.70;;;7.13;;
61704;SDS011;47627;48.078;11.522;2023-06-22T06:56:30;13.98;;;7.43;;
61704;SDS011;47627;48.078;11.522;2023-06-22T06:58:58;16.63;;;8.00;;
61704;SDS011;47627;48.078;11.522;2023-06-22T07:01:23;13.60;;;6.78;;
61704;SDS011;47627;48.078;11.522;2023-06-22T07:03:48;17.20;;;7.30;;
61704;SDS011;47627;48.078;11.522;2023-06-22T07:06:14;14.60;;;6.20;;
61704;SDS011;47627;48.078;11.522;2023-06-22T07:08:39;13.65;;;7.07;;
61704;SDS011;47627;48.078;11.522;2023-06-22T07:11:05;14.82;;;6.10;;
61704;SDS011;47627;48.078;11.522;2023-06-22T07:13:30;14.25;;;5.97;;
61704;SDS011;47627;48.078;11.522;2023-06-22T07:15:55;13.73;;;6.27;;
61704;SDS011;47627;48.078;11.522;2023-06-22T07:18:20;13.55;;;6.03;;
61704;SDS011;47627;48.078;11.522;2023-06-22T07:20:46;14.35;;;6.25;;
61704;SDS011;47627;48.078;11.522;2023-06-22T07:23:11;16.77;;;5.80;;
61704;SDS011;47627;48.078;11.522;2023-06-22T07:25:37;9.93;;;5.03;;
61704;SDS011;47627;48.078;11.522;2023-06-22T07:28:04;9.90;;;5.40;;
61704;SDS011;47627;48.078;11.522;2023-06-22T07:30:29;14.98;;;5.78;;
61704;SDS011;47627;48.078;11.522;2023-06-22T07:32:54;11.63;;;5.07;;
61704;SDS011;47627;48.078;11.522;2023-06-22T07:35:20;13.70;;;5.97;;
61704;SDS011;47627;48.078;11.522;2023-06-22T07:37:45;11.90;;;5.77;;
61704;SDS011;47627;48.078;11.522;2023-06-22T07:40:11;12.27;;;6.18;;
61704;SDS011;47627;48.078;11.522;2023-06-22T07:42:36;10.50;;;5.55;;
61704;SDS011;47627;48.078;11.522;2023-06-22T07:45:02;12.98;;;5.80;;
61704;SDS011;47627;48.078;11.522;2023-06-22T07:47:28;14.40;;;5.30;;
61704;SDS011;47627;48.078;11.522;2023-06-22T07:49:58;15.02;;;5.97;;
61704;SDS011;47627;48.078;11.522;2023-06-22T07:52:26;11.95;;;5.78;;
61704;SDS011;47627;48.078;11.522;2023-06-22T07:54:52;12.80;;;5.55;;
61704;SDS011;47627;48.078;11.522;2023-06-22T07:57:17;12.45;;;6.10;;
61704;SDS011;47627;48.078;11.522;2023-06-22T07:59:43;16.65;;;6.13;;
61704;SDS011;47627;48.078;11.522;2023-06-22T08:02:08;11.93;;;5.40;;
61704;SDS011;47627;48.078;11.522;2023-06-22T08:04:35;13.15;;;6.13;;
61704;SDS011;47627;48.078;11.522;2023-06-22T08:07:00;15.20;;;6.07;;
61704;SDS011;47627;48.078;11.522;2023-06-22T08:09:28;14.07;;;4.97;;
61704;SDS011;47627;48.078;11.522;2023-06-22T08:11:53;13.65;;;5.47;;
61704;SDS011;47627;48.078;11.522;2023-06-22T08:14:20;17.08;;;5.38;;
61704;SDS011;47627;48.078;11.522;2023-06-22T08:16:45;10.70;;;5.50;;
61704;SDS011;47627;48.078;11.522;2023-06-22T08:19:11;13.95;;;5.72;;
61704;SDS011;47627;48.078;11.522;2023-06-22T08:21:36;14.27;;;5.30;;
61704;SDS011;47627;48.078;11.522;2023-06-22T08:24:02;12.73;;;5.57;;
61704;SDS011;47627;48.078;11.522;2023-06-22T08:26:28;9.80;;;5.30;;
61704;SDS011;47627;48.078;11.522;2023-06-22T08:28:53;12.10;;;4.97;;
61704;SDS011;47627;48.078;11.522;2023-06-22T08:31:18;13.27;;;5.53;;
61704;SDS011;47627;48.078;11.522;2023-06-22T08:33:43;11.70;;;5.60;;
61704;SDS011;47627;48.078;11.522;2023-06-22T08:36:10;17.85;;;6.07;;
61704;SDS011;47627;48.078;11.522;2023-06-22T08:38:38;17.08;;;5.97;;
61704;SDS011;47627;48.078;11.522;2023-06-22T08:41:03;12.80;;;5.60;;
61704;SDS011;47627;48.078;11.522;2023-06-22T08:43:28;14.50;;;6.37;;
61704;SDS011;47627;48.078;11.522;2023-06-22T08:45:53;13.93;;;6.30;;
61704;SDS011;47627;48.078;11.522;2023-06-22T08:48:19;11.00;;;5.53;;
61704;SDS011;47627;48.078;11.522;2023-06-22T08:50:44;14.13;;;5.80;;
61704;SDS011;47627;48.078;11.522;2023-06-22T08:53:09;11.18;;;5.53;;
61704;SDS011;47627;48.078;11.522;2023-06-22T08:55:34;15.63;;;5.53;;
61704;SDS011;47627;48.078;11.522;2023-06-22T08:58:00;12.80;;;6.20;;
61704;SDS011;47627;48.078;11.522;2023-06-22T09:00:25;14.07;;;6.27;;
61704;SDS011;47627;48.078;11.522;2023-06-22T09:02:50;11.68;;;5.57;;
61704;SDS011;47627;48.078;11.522;2023-06-22T09:05:15;13.77;;;5.63;;
61704;SDS011;47627;48.078;11.522;2023-06-22T09:07:41;16.98;;;6.78;;
61704;SDS011;47627;48.078;11.522;2023-06-22T09:10:07;18.67;;;6.78;;
61704;SDS011;47627;48.078;11.522;2023-06-22T09:12:32;18.35;;;6.57;;
61704;SDS011;47627;48.078;11.522;2023-06-22T09:15:00;12.05;;;5.82;;
61704;SDS011;47627;48.078;11.522;2023-06-22T09:17:26;11.70;;;5.50;;
61704;SDS011;47627;48.078;11.522;2023-06-22T09:19:51;14.18;;;5.72;;
61704;SDS011;47627;48.078;11.522;2023-06-22T09:22:17;13.27;;;5.80;;
61704;SDS011;47627;48.078;11.522;2023-06-22T09:24:42;20.90;;;6.15;;
61704;SDS011;47627;48.078;11.522;2023-06-22T09:27:07;15.90;;;5.90;;
61704;SDS011;47627;48.078;11.522;2023-06-22T09:29:32;18.02;;;6.13;;
61704;SDS011;47627;48.078;11.522;2023-06-22T09:32:00;16.92;;;5.70;;
61704;SDS011;47627;48.078;11.522;2023-06-22T09:34:26;13.65;;;5.88;;
61704;SDS011;47627;48.078;11.522;2023-06-22T09:36:51;14.67;;;5.80;;
61704;SDS011;47627;48.078;11.522;2023-06-22T09:39:17;9.77;;;5.70;;
61704;SDS011;47627;48.078;11.522;2023-06-22T09:41:43;13.55;;;5.65;;
61704;SDS011;47627;48.078;11.522;2023-06-22T09:44:08;12.03;;;5.93;;
61704;SDS011;47627;48.078;11.522;2023-06-22T09:46:33;12.97;;;5.53;;
61704;SDS011;47627;48.078;11.522;2023-06-22T09:48:58;16.83;;;5.97;;
61704;SDS011;47627;48.078;11.522;2023-06-22T09:51:23;12.13;;;5.83;;
61704;SDS011;47627;48.078;11.522;2023-06-22T09:53:49;13.25;;;6.40;;
61704;SDS011;47627;48.078;11.522;2023-06-22T09:56:15;12.32;;;5.63;;
61704;SDS011;47627;48.078;11.522;2023-06-22T09:58:41;16.30;;;6.28;;
61704;SDS011;47627;48.078;11.522;2023-06-22T10:01:07;16.83;;;6.68;;
61704;SDS011;47627;48.078;11.522;2023-06-22T10:03:32;17.20;;;6.67;;
61704;SDS011;47627;48.078;11.522;2023-06-22T10:05:57;15.90;;;6.60;;
61704;SDS011;47627;48.078;11.522;2023-06-22T10:08:23;13.63;;;5.57;;
61704;SDS011;47627;48.078;11.522;2023-06-22T10:10:48;15.30;;;5.40;;
61704;SDS011;47627;48.078;11.522;2023-06-22T10:13:13;10.27;;;6.03;;
61704;SDS011;47627;48.078;11.522;2023-06-22T10:15:39;14.75;;;5.63;;
61704;SDS011;47627;48.078;11.522;2023-06-22T10:18:05;16.08;;;6.28;;
61704;SDS011;47627;48.078;11.522;2023-06-22T10:20:30;18.85;;;6.15;;
61704;SDS011;47627;48.078;11.522;2023-06-22T10:22:56;12.27;;;5.97;;
61704;SDS011;47627;48.078;11.522;2023-06-22T10:25:21;15.75;;;5.78;;
61704;SDS011;47627;48.078;11.522;2023-06-22T10:27:46;15.65;;;5.70;;
61704;SDS011;47627;48.078;11.522;2023-06-22T10:30:12;13.57;;;6.03;;
61704;SDS011;47627;48.078;11.522;2023-06-22T10:32:38;12.98;;;6.05;;
61704;SDS011;47627;48.078;11.522;2023-06-22T10:35:04;13.32;;;5.53;;
61704;SDS011;47627;48.078;11.522;2023-06-22T10:37:29;14.23;;;5.55;;
61704;SDS011;47627;48.078;11.522;2023-06-22T10:39:54;12.98;;;5.93;;
61704;SDS011;47627;48.078;11.522;2023-06-22T10:42:19;18.57;;;6.17;;
61704;SDS011;47627;48.078;11.522;2023-06-22T10:44:45;16.20;;;5.38;;
61704;SDS011;47627;48.078;11.522;2023-06-22T10:47:10;21.48;;;5.30;;
61704;SDS011;47627;48.078;11.522;2023-06-22T10:49:37;15.00;;;5.15;;
61704;SDS011;47627;48.078;11.522;2023-06-22T10:52:02;16.05;;;6.40;;
61704;SDS011;47627;48.078;11.522;2023-06-22T10:54:28;17.58;;;6.30;;
61704;SDS011;47627;48.078;11.522;2023-06-22T10:56:54;16.10;;;5.40;;
61704;SDS011;47627;48.078;11.522;2023-06-22T10:59:19;13.33;;;4.80;;
61704;SDS011;47627;48.078;11.522;2023-06-22T11:01:46;16.33;;;6.13;;
61704;SDS011;47627;48.078;11.522;2023-06-22T11:04:11;17.17;;;6.05;;
61704;SDS011;47627;48.078;11.522;2023-06-22T11:06:37;21.07;;;6.13;;
61704;SDS011;47627;48.078;11.522;2023-06-22T11:09:02;15.20;;;5.63;;
61704;SDS011;47627;48.078;11.522;2023-06-22T11:11:28;21.67;;;6.25;;
61704;SDS011;47627;48.078;11.522;2023-06-22T11:13:54;20.47;;;6.67;;
61704;SDS011;47627;48.078;11.522;2023-06-22T11:16:19;13.25;;;5.53;;
61704;SDS011;47627;48.078;11.522;2023-06-22T11:18:44;12.75;;;5.07;;
61704;SDS011;47627;48.078;11.522;2023-06-22T11:21:09;15.23;;;5.68;;
61704;SDS011;47627;48.078;11.522;2023-06-22T11:23:35;23.30;;;6.17;;
61704;SDS011;47627;48.078;11.522;2023-06-22T11:26:00;13.93;;;5.50;;
61704;SDS011;47627;48.078;11.522;2023-06-22T11:28:25;13.40;;;5.65;;
61704;SDS011;47627;48.078;11.522;2023-06-22T11:30:51;16.70;;;5.70;;
61704;SDS011;47627;48.078;11.522;2023-06-22T11:33:16;16.42;;;5.97;;
61704;SDS011;47627;48.078;11.522;2023-06-22T11:35:41;13.82;;;5.88;;
61704;SDS011;47627;48.078;11.522;2023-06-22T11:38:07;10.07;;;5.13;;
61704;SDS011;47627;48.078;11.522;2023-06-22T11:40:32;13.57;;;5.18;;
61704;SDS011;47627;48.078;11.522;2023-06-22T11:42:58;15.50;;;5.57;;
61704;SDS011;47627;48.078;11.522;2023-06-22T11:45:23;10.90;;;5.13;;
61704;SDS011;47627;48.078;11.522;2023-06-22T11:47:48;13.68;;;5.10;;
61704;SDS011;47627;48.078;11.522;2023-06-22T11:50:13;12.53;;;5.40;;
61704;SDS011;47627;48.078;11.522;2023-06-22T11:52:39;15.68;;;5.50;;
61704;SDS011;47627;48.078;11.522;2023-06-22T11:55:04;10.47;;;5.23;;
61704;SDS011;47627;48.078;11.522;2023-06-22T11:57:32;12.98;;;5.72;;
61704;SDS011;47627;48.078;11.522;2023-06-22T11:59:57;14.60;;;5.65;;
61704;SDS011;47627;48.078;11.522;2023-06-22T12:02:23;12.87;;;5.17;;
61704;SDS011;47627;48.078;11.522;2023-06-22T12:04:48;15.33;;;5.63;;
61704;SDS011;47627;48.078;11.522;2023-06-22T12:07:13;13.83;;;5.53;;
61704;SDS011;47627;48.078;11.522;2023-06-22T12:09:39;17.55;;;5.55;;
61704;SDS011;47627;48.078;11.522;2023-06-22T12:12:04;16.00;;;5.73;;
61704;SDS011;47627;48.078;11.522;2023-06-22T12:14:30;19.08;;;5.50;;
61704;SDS011;47627;48.078;11.522;2023-06-22T12:16:55;14.57;;;5.47;;
61704;SDS011;47627;48.078;11.522;2023-06-22T12:19:20;12.80;;;5.75;;
61704;SDS011;47627;48.078;11.522;2023-06-22T12:21:45;14.23;;;5.80;;
61704;SDS011;47627;48.078;11.522;2023-06-22T12:24:11;13.00;;;5.57;;
61704;SDS011;47627;48.078;11.522;2023-06-22T12:26:36;12.02;;;5.28;;
61704;SDS011;47627;48.078;11.522;2023-06-22T12:29:01;12.83;;;5.27;;
61704;SDS011;47627;48.078;11.522;2023-06-22T12:31:27;13.68;;;5.75;;
61704;SDS011;47627;48.078;11.522;2023-06-22T12:33:52;11.90;;;5.70;;
61704;SDS011;47627;48.078;11.522;2023-06-22T12:36:17;21.27;;;5.70;;
61704;SDS011;47627;48.078;11.522;2023-06-22T12:38:42;12.50;;;5.35;;
61704;SDS011;47627;48.078;11.522;2023-06-22T12:41:08;17.33;;;6.10;;
61704;SDS011;47627;48.078;11.522;2023-06-22T12:43:33;16.70;;;5.70;;
61704;SDS011;47627;48.078;11.522;2023-06-22T12:45:58;14.52;;;5.35;;
61704;SDS011;47627;48.078;11.522;2023-06-22T12:48:25;17.45;;;6.03;;
61704;SDS011;47627;48.078;11.522;2023-06-22T12:50:50;12.63;;;5.80;;
61704;SDS011;47627;48.078;11.522;2023-06-22T12:53:16;14.63;;;5.93;;
61704;SDS011;47627;48.078;11.522;2023-06-22T12:55:41;14.70;;;6.33;;
61704;SDS011;47627;48.078;11.522;2023-06-22T12:58:06;18.07;;;5.73;;
61704;SDS011;47627;48.078;11.522;2023-06-22T13:00:31;15.38;;;5.97;;
61704;SDS011;47627;48.078;11.522;2023-06-22T13:02:57;14.87;;;5.40;;
61704;SDS011;47627;48.078;11.522;2023-06-22T13:05:22;16.67;;;5.68;;
61704;SDS011;47627;48.078;11.522;2023-06-22T13:07:47;15.00;;;5.70;;
61704;SDS011;47627;48.078;11.522;2023-06-22T13:10:12;13.40;;;5.27;;
61704;SDS011;47627;48.078;11.522;2023-06-22T13:12:37;14.03;;;5.50;;
61704;SDS011;47627;48.078;11.522;2023-06-22T13:15:03;9.00;;;5.13;;
61704;SDS011;47627;48.078;11.522;2023-06-22T13:17:28;16.30;;;5.80;;
61704;SDS011;47627;48.078;11.522;2023-06-22T13:19:53;14.50;;;5.75;;
61704;SDS011;47627;48.078;11.522;2023-06-22T13:24:50;19.75;;;5.90;;
61704;SDS011;47627;48.078;11.522;2023-06-22T13:27:16;12.30;;;5.83;;
61704;SDS011;47627;48.078;11.522;2023-06-22T13:29:41;15.80;;;5.50;;
61704;SDS011;47627;48.078;11.522;2023-06-22T13:32:06;13.60;;;5.03;;
61704;SDS011;47627;48.078;11.522;2023-06-22T13:34:31;11.45;;;5.03;;
61704;SDS011;47627;48.078;11.522;2023-06-22T13:36:56;14.13;;;5.10;;
61704;SDS011;47627;48.078;11.522;2023-06-22T13:39:22;13.93;;;5.13;;
61704;SDS011;47627;48.078;11.522;2023-06-22T13:41:48;14.93;;;5.72;;
61704;SDS011;47627;48.078;11.522;2023-06-22T13:44:13;11.97;;;5.37;;
61704;SDS011;47627;48.078;11.522;2023-06-22T13:46:38;10.13;;;5.30;;
61704;SDS011;47627;48.078;11.522;2023-06-22T13:49:04;14.97;;;5.63;;
61704;SDS011;47627;48.078;11.522;2023-06-22T13:51:29;17.83;;;5.87;;
61704;SDS011;47627;48.078;11.522;2023-06-22T13:53:54;19.00;;;5.57;;
61704;SDS011;47627;48.078;11.522;2023-06-22T13:56:19;12.70;;;4.83;;
61704;SDS011;47627;48.078;11.522;2023-06-22T13:58:44;12.27;;;5.70;;
61704;SDS011;47627;48.078;11.522;2023-06-22T14:01:10;14.63;;;4.80;;
61704;SDS011;47627;48.078;11.522;2023-06-22T14:03:35;16.80;;;5.10;;
61704;SDS011;47627;48.078;11.522;2023-06-22T14:06:00;15.67;;;5.27;;
61704;SDS011;47627;48.078;11.522;2023-06-22T14:08:25;13.20;;;5.40;;
61704;SDS011;47627;48.078;11.522;2023-06-22T14:10:51;14.87;;;4.90;;
61704;SDS011;47627;48.078;11.522;2023-06-22T14:13:16;10.60;;;4.87;;
61704;SDS011;47627;48.078;11.522;2023-06-22T14:15:41;13.47;;;4.60;;
61704;SDS011;47627;48.078;11.522;2023-06-22T14:18:07;11.02;;;5.10;;
61704;SDS011;47627;48.078;11.522;2023-06-22T14:20:33;14.37;;;5.23;;
61704;SDS011;47627;48.078;11.522;2023-06-22T14:22:58;16.50;;;5.00;;
61704;SDS011;47627;48.078;11.522;2023-06-22T14:25:23;13.27;;;5.80;;
61704;SDS011;47627;48.078;11.522;2023-06-22T14:27:48;13.47;;;5.50;;
61704;SDS011;47627;48.078;11.522;2023-06-22T14:30:13;15.13;;;5.17;;
61704;SDS011;47627;48.078;11.522;2023-06-22T14:32:39;10.13;;;5.10;;
61704;SDS011;47627;48.078;11.522;2023-06-22T14:35:04;11.57;;;5.17;;
61704;SDS011;47627;48.078;11.522;2023-06-22T14:37:29;11.75;;;5.00;;
61704;SDS011;47627;48.078;11.522;2023-06-22T14:39:55;13.97;;;4.87;;
61704;SDS011;47627;48.078;11.522;2023-06-22T14:42:20;15.50;;;5.47;;
61704;SDS011;47627;48.078;11.522;2023-06-22T14:44:46;12.20;;;4.75;;
61704;SDS011;47627;48.078;11.522;2023-06-22T14:47:11;11.13;;;4.70;;
61704;SDS011;47627;48.078;11.522;2023-06-22T14:49:36;18.23;;;5.13;;
61704;SDS011;47627;48.078;11.522;2023-06-22T14:52:02;11.00;;;4.88;;
61704;SDS011;47627;48.078;11.522;2023-06-22T14:54:27;10.43;;;4.63;;
61704;SDS011;47627;48.078;11.522;2023-06-22T14:56:52;14.65;;;4.85;;
61704;SDS011;47627;48.078;11.522;2023-06-22T14:59:17;10.47;;;4.70;;
61704;SDS011;47627;48.078;11.522;2023-06-22T15:01:43;14.02;;;5.68;;
61704;SDS011;47627;48.078;11.522;2023-06-22T15:04:08;13.30;;;5.10;;
61704;SDS011;47627;48.078;11.522;2023-06-22T15:06:33;16.60;;;4.90;;
61704;SDS011;47627;48.078;11.522;2023-06-22T15:08:58;10.60;;;4.57;;
61704;SDS011;47627;48.078;11.522;2023-06-22T15:11:23;13.93;;;4.80;;
61704;SDS011;47627;48.078;11.522;2023-06-22T15:13:49;15.40;;;5.20;;
61704;SDS011;47627;48.078;11.522;2023-06-22T15:16:14;14.10;;;4.77;;
61704;SDS011;47627;48.078;11.522;2023-06-22T15:18:40;13.60;;;5.18;;
61704;SDS011;47627;48.078;11.522;2023-06-22T15:21:08;13.48;;;5.30;;
61704;SDS011;47627;48.078;11.522;2023-06-22T15:23:34;13.75;;;5.53;;
61704;SDS011;47627;48.078;11.522;2023-06-22T15:26:01;15.40;;;5.15;;
61704;SDS011;47627;48.078;11.522;2023-06-22T15:28:27;13.10;;;5.32;;
61704;SDS011;47627;48.078;11.522;2023-06-22T15:30:53;14.63;;;4.75;;
61704;SDS011;47627;48.078;11.522;2023-06-22T15:33:18;13.50;;;5.15;;
61704;SDS011;47627;48.078;11.522;2023-06-22T15:35:43;18.30;;;5.57;;
61704;SDS011;47627;48.078;11.522;2023-06-22T15:38:08;13.13;;;4.70;;
61704;SDS011;47627;48.078;11.522;2023-06-22T15:40:34;14.10;;;4.53;;
61704;SDS011;47627;48.078;11.522;2023-06-22T15:42:59;14.40;;;4.75;;
61704;SDS011;47627;48.078;11.522;2023-06-22T15:45:25;11.13;;;4.60;;
61704;SDS011;47627;48.078;11.522;2023-06-22T15:47:50;15.68;;;5.18;;
61704;SDS011;47627;48.078;11.522;2023-06-22T15:50:15;16.97;;;5.40;;
61704;SDS011;47627;48.078;11.522;2023-06-22T15:52:40;14.55;;;5.05;;
61704;SDS011;47627;48.078;11.522;2023-06-22T15:55:06;9.27;;;4.93;;
61704;SDS011;47627;48.078;11.522;2023-06-22T15:57:32;19.42;;;5.15;;
61704;SDS011;47627;48.078;11.522;2023-06-22T15:59:59;12.30;;;4.03;;
61704;SDS011;47627;48.078;11.522;2023-06-22T16:02:24;13.25;;;4.57;;
61704;SDS011;47627;48.078;11.522;2023-06-22T16:04:51;13.07;;;4.82;;
61704;SDS011;47627;48.078;11.522;2023-06-22T16:07:18;15.68;;;4.93;;
61704;SDS011;47627;48.078;11.522;2023-06-22T16:09:43;10.20;;;4.35;;
61704;SDS011;47627;48.078;11.522;2023-06-22T16:12:08;10.77;;;4.25;;
61704;SDS011;47627;48.078;11.522;2023-06-22T16:14:34;11.98;;;4.80;;
61704;SDS011;47627;48.078;11.522;2023-06-22T16:16:59;15.68;;;4.75;;
61704;SDS011;47627;48.078;11.522;2023-06-22T16:19:25;17.77;;;4.80;;
61704;SDS011;47627;48.078;11.522;2023-06-22T16:21:50;11.90;;;4.83;;
61704;SDS011;47627;48.078;11.522;2023-06-22T16:24:15;11.53;;;4.70;;
61704;SDS011;47627;48.078;11.522;2023-06-22T16:26:41;14.57;;;4.88;;
61704;SDS011;47627;48.078;11.522;2023-06-22T16:29:07;14.95;;;4.43;;
61704;SDS011;47627;48.078;11.522;2023-06-22T16:31:32;13.30;;;4.75;;
61704;SDS011;47627;48.078;11.522;2023-06-22T16:33:57;14.50;;;4.60;;
61704;SDS011;47627;48.078;11.522;2023-06-22T16:36:22;14.35;;;4.65;;
61704;SDS011;47627;48.078;11.522;2023-06-22T16:38:48;13.15;;;4.70;;
61704;SDS011;47627;48.078;11.522;2023-06-22T16:41:15;13.40;;;5.03;;
